Baylis, Illinois
Current Conditions -  °F | °C
As of 1:15 PM on Friday 21 Nov 2014 (Local Time) from KPPQ Reporting Station
Clear Clear  
Wind Chill: 29°   Ceiling: Unl
Heat Index: 37°   Visibility: 10mi
Dew Point: 18°   Wind: 13mph
Humidity: 46%   Direction: 130°SE
Pressure: 30.32"   Gusts: 16mph
Location:  39.73°N, 90.91°W
Report Text: KPPQ 211915Z AUTO 13011G14KT 10SM CLR 03/M08 A3032 RMK AO2 T00281077 PWINO
Loading
Personal Weather Stations






























Interactive Weather Map New forecast layout! Learn more

10-Day Weather Forecast

Advertisements
Track Severe Weather on mobile